Terminal Aerodrome Forecast
Issued by NWS Wilmington, OH

Current Version | Previous Version | Text Only | Print | Product List | Glossary Off
Versions: 1 2 3 4 5 6 7 8 9 10 11 12 13 14 15 16 17 18 19 20 21 22 23 24 25 26

000
FTUS41 KILN 101630 AAB
TAFCVG
TAF AMD
KCVG 101630Z 1017/1118 26006KT P6SM BKN025
     FM101800 25007KT P6SM SCT035 BKN100
     FM110000 13004KT P6SM BKN080
     FM111200 15009KT P6SM BKN050=

USA.gov is the U.S. government's official web portal to all federal, state and local government web resources and services.